Time;durP1;ratioP1;P1;durP2;ratioP2;P2;SDS_P1;SDS_P2;PMS_P1;PMS_P2;Temp;Humidity;BMP_temperature;BMP_pressure;BME280_temperature;BME280_humidity;BME280_pressure;Samples;Min_cycle;Max_cycle;Signal;HPM_P1;HPM_P2
2023/05/31 00:01:47;;;;;;;5.77;2.10;;;16.40;50.40;;;;;;953766;148;27285;-74
2023/05/31 00:04:13;;;;;;;6.43;2.03;;;16.40;50.70;;;;;;952751;149;27911;-74
2023/05/31 00:06:40;;;;;;;2.12;1.80;;;16.40;50.70;;;;;;953667;149;27343;-75
2023/05/31 00:09:07;;;;;;;5.13;2.00;;;16.30;50.70;;;;;;952462;149;27329;-75
2023/05/31 00:11:33;;;;;;;6.10;2.13;;;16.30;50.80;;;;;;953448;148;27296;-75
2023/05/31 00:14:00;;;;;;;2.63;2.03;;;16.30;50.80;;;;;;953924;146;27360;-74
2023/05/31 00:16:26;;;;;;;3.50;2.00;;;16.20;50.90;;;;;;953528;148;27352;-74
2023/05/31 00:18:53;;;;;;;5.40;2.87;;;16.20;51.20;;;;;;954024;147;27237;-74
2023/05/31 00:21:20;;;;;;;3.87;2.27;;;16.20;51.20;;;;;;953352;146;27648;-74
2023/05/31 00:23:46;;;;;;;4.05;2.00;;;16.20;51.20;;;;;;953936;147;27324;-74
2023/05/31 00:26:13;;;;;;;4.70;2.27;;;16.20;51.40;;;;;;953440;149;27436;-74
2023/05/31 00:28:39;;;;;;;4.67;2.40;;;16.20;51.50;;;;;;954000;149;27348;-74
2023/05/31 00:31:06;;;;;;;3.10;2.20;;;16.20;51.60;;;;;;952748;148;27394;-74
2023/05/31 00:33:33;;;;;;;3.77;2.10;;;16.10;51.60;;;;;;954113;148;27323;-75
2023/05/31 00:35:59;;;;;;;5.00;2.30;;;16.10;51.80;;;;;;953481;147;27321;-74
2023/05/31 00:38:27;;;;;;;2.70;1.90;;;16.10;51.90;;;;;;953177;148;27355;-74
2023/05/31 00:40:52;;;;;;;5.93;2.10;;;16.10;52.00;;;;;;956603;147;27906;-74
2023/05/31 00:43:19;;;;;;;4.35;1.87;;;16.20;52.10;;;;;;969546;147;27315;-74
2023/05/31 00:45:45;;;;;;;2.80;1.80;;;16.10;52.10;;;;;;970375;147;27391;-74
2023/05/31 00:48:12;;;;;;;2.83;2.20;;;16.10;52.10;;;;;;970325;147;27349;-74
2023/05/31 00:50:39;;;;;;;5.60;2.80;;;16.10;52.30;;;;;;969028;147;27334;-74
2023/05/31 00:53:05;;;;;;;5.47;2.20;;;16.10;53.10;;;;;;969550;147;27390;-74
2023/05/31 00:55:32;;;;;;;4.35;2.33;;;16.10;52.60;;;;;;970146;147;27313;-74
2023/05/31 00:57:58;;;;;;;3.17;2.30;;;16.10;52.70;;;;;;970160;145;27327;-74
2023/05/31 01:00:25;;;;;;;4.77;2.00;;;16.00;52.60;;;;;;969599;147;27337;-74
2023/05/31 01:02:52;;;;;;;4.77;2.67;;;16.00;52.80;;;;;;970021;147;27322;-74
2023/05/31 01:05:18;;;;;;;4.73;1.90;;;16.00;52.90;;;;;;969213;145;27310;-74
2023/05/31 01:07:45;;;;;;;3.50;2.23;;;16.00;53.00;;;;;;970088;147;27249;-74
2023/05/31 01:10:11;;;;;;;6.33;2.00;;;15.90;53.10;;;;;;969392;145;27448;-74
2023/05/31 01:12:56;;;;;;;3.70;1.87;;;15.90;53.30;;;;;;970137;146;27435;-74
2023/05/31 01:15:23;;;;;;;4.17;2.10;;;15.90;53.30;;;;;;968677;145;27907;-74
2023/05/31 01:18:02;;;;;;;5.73;3.20;;;15.80;53.20;;;;;;969770;147;27403;-75
2023/05/31 01:20:34;;;;;;;2.83;2.07;;;15.80;53.40;;;;;;968072;145;27329;-75
2023/05/31 01:23:19;;;;;;;5.40;2.40;;;15.80;53.50;;;;;;970329;147;27347;-75
2023/05/31 01:26:19;;;;;;;2.83;2.20;;;15.80;53.70;;;;;;969752;147;27391;-74
2023/05/31 01:28:46;;;;;;;6.30;2.40;;;15.70;53.10;;;;;;970069;147;27330;-75
2023/05/31 01:31:12;;;;;;;5.37;2.07;;;15.70;53.50;;;;;;969021;147;27322;-75
2023/05/31 01:33:39;;;;;;;5.87;2.43;;;15.70;53.80;;;;;;969318;147;27282;-74
2023/05/31 01:36:05;;;;;;;3.50;2.10;;;15.60;54.00;;;;;;970191;147;27756;-74
2023/05/31 01:38:32;;;;;;;4.40;1.90;;;15.60;54.00;;;;;;970040;147;27443;-74
2023/05/31 01:40:59;;;;;;;4.67;2.13;;;15.60;54.20;;;;;;969666;147;27294;-74
2023/05/31 01:43:28;;;;;;;4.10;2.07;;;15.60;54.20;;;;;;954024;147;27332;-75
2023/05/31 01:45:54;;;;;;;2.70;2.00;;;15.60;54.30;;;;;;954021;148;27433;-75
2023/05/31 01:48:21;;;;;;;5.57;2.60;;;15.60;54.50;;;;;;953108;148;27394;-74
2023/05/31 01:50:47;;;;;;;4.00;2.00;;;15.60;54.50;;;;;;953160;149;27437;-74
2023/05/31 01:53:14;;;;;;;4.20;2.03;;;15.60;54.60;;;;;;950931;146;27308;-74
2023/05/31 01:55:43;;;;;;;2.70;2.37;;;15.60;54.70;;;;;;951102;147;27317;-74
2023/05/31 01:58:07;;;;;;;4.50;2.43;;;15.60;54.70;;;;;;950451;147;27267;-74
2023/05/31 02:00:34;;;;;;;5.33;2.47;;;15.50;54.90;;;;;;951176;147;27371;-74
2023/05/31 02:03:00;;;;;;;6.70;2.13;;;15.50;54.90;;;;;;951278;147;27306;-74
2023/05/31 02:05:27;;;;;;;5.53;2.50;;;15.50;55.00;;;;;;939186;149;27341;-74
2023/05/31 02:07:54;;;;;;;3.13;2.10;;;15.50;55.20;;;;;;950058;147;27421;-74
2023/05/31 02:10:20;;;;;;;6.30;2.37;;;15.40;55.20;;;;;;942755;149;27372;-74
2023/05/31 02:12:50;;;;;;;6.07;3.10;;;15.40;55.30;;;;;;942500;149;27453;-74
2023/05/31 02:15:13;;;;;;;4.60;2.27;;;15.40;55.40;;;;;;942230;149;27415;-74
2023/05/31 02:17:43;;;;;;;5.40;2.30;;;15.40;55.60;;;;;;943537;149;27473;-74
2023/05/31 02:20:07;;;;;;;3.17;2.07;;;15.30;55.70;;;;;;942559;149;27740;-74
2023/05/31 02:22:33;;;;;;;5.63;2.40;;;15.30;55.80;;;;;;933771;149;27325;-75
2023/05/31 02:25:00;;;;;;;2.93;2.03;;;15.30;56.40;;;;;;931669;149;27856;-75
2023/05/31 02:27:28;;;;;;;4.50;2.80;;;15.20;56.10;;;;;;927497;151;27348;-74
2023/05/31 02:29:53;;;;;;;3.47;1.90;;;15.20;56.10;;;;;;951184;147;27482;-74
2023/05/31 02:32:20;;;;;;;5.27;2.13;;;15.10;56.30;;;;;;933599;150;27330;-74
2023/05/31 02:34:46;;;;;;;4.73;2.50;;;15.10;56.40;;;;;;942722;148;27428;-74
2023/05/31 02:37:13;;;;;;;3.93;2.03;;;15.00;56.60;;;;;;933253;149;27299;-74
2023/05/31 02:39:40;;;;;;;3.93;2.27;;;15.00;56.80;;;;;;936428;150;27344;-75
2023/05/31 02:42:06;;;;;;;3.07;2.40;;;14.90;56.80;;;;;;928456;150;27402;-75
2023/05/31 02:44:32;;;;;;;5.13;2.40;;;14.90;56.60;;;;;;963547;146;27217;-74
2023/05/31 02:46:59;;;;;;;2.73;2.30;;;14.80;57.10;;;;;;963740;146;27262;-75
2023/05/31 02:49:26;;;;;;;3.57;2.70;;;14.70;57.20;;;;;;963547;146;27333;-75
2023/05/31 02:51:52;;;;;;;3.53;2.20;;;14.70;57.40;;;;;;944115;149;27773;-75
2023/05/31 02:54:19;;;;;;;3.80;2.30;;;14.60;57.60;;;;;;946003;149;27402;-75
2023/05/31 02:56:45;;;;;;;4.23;2.53;;;14.60;57.60;;;;;;963679;146;27304;-75
2023/05/31 02:59:12;;;;;;;4.17;2.33;;;14.50;57.80;;;;;;963364;146;27317;-75
2023/05/31 03:01:39;;;;;;;5.47;3.37;;;14.50;58.10;;;;;;963650;146;27321;-75
2023/05/31 03:04:05;;;;;;;8.87;2.67;;;14.40;58.10;;;;;;963451;146;27856;-75
2023/05/31 03:06:33;;;;;;;4.03;2.60;;;14.30;58.30;;;;;;963913;145;27640;-75
2023/05/31 03:08:58;;;;;;;5.00;2.60;;;14.30;58.30;;;;;;963891;145;27392;-75
2023/05/31 03:11:25;;;;;;;3.60;2.50;;;14.30;58.50;;;;;;963579;146;27341;-75
2023/05/31 03:13:52;;;;;;;4.37;2.23;;;14.20;58.60;;;;;;946529;148;27376;-75
2023/05/31 03:16:20;;;;;;;3.27;2.57;;;14.20;58.80;;;;;;946080;148;27316;-75
2023/05/31 03:18:45;;;;;;;4.67;2.40;;;14.20;58.80;;;;;;942846;149;27353;-75
2023/05/31 03:21:11;;;;;;;5.43;2.50;;;14.10;58.90;;;;;;964417;147;27431;-75
2023/05/31 03:23:38;;;;;;;5.83;2.93;;;14.10;59.00;;;;;;965052;148;27338;-75
2023/05/31 03:26:05;;;;;;;5.20;2.37;;;14.10;59.20;;;;;;964664;148;27439;-75
2023/05/31 03:28:31;;;;;;;4.43;2.63;;;14.10;59.20;;;;;;964378;147;27318;-75
2023/05/31 03:30:58;;;;;;;6.20;2.70;;;14.10;59.30;;;;;;964366;147;27447;-75
2023/05/31 03:33:24;;;;;;;3.97;2.30;;;14.10;59.50;;;;;;964828;147;27439;-75
2023/05/31 03:35:51;;;;;;;4.03;2.67;;;14.10;59.30;;;;;;965251;147;27311;-75
2023/05/31 03:38:17;;;;;;;4.20;2.17;;;14.10;59.50;;;;;;964791;145;27380;-75
2023/05/31 03:40:44;;;;;;;5.03;2.00;;;14.10;59.60;;;;;;964601;148;27299;-75
2023/05/31 03:43:11;;;;;;;5.40;2.40;;;14.10;59.70;;;;;;966244;147;27402;-75
2023/05/31 03:45:37;;;;;;;3.73;2.50;;;14.10;59.60;;;;;;950183;148;27446;-75
2023/05/31 03:48:04;;;;;;;5.13;2.33;;;14.20;59.70;;;;;;953980;147;27417;-75
2023/05/31 03:50:30;;;;;;;3.37;2.23;;;14.20;59.70;;;;;;952794;148;27315;-75
2023/05/31 03:52:57;;;;;;;2.77;2.23;;;14.30;59.10;;;;;;953951;147;27863;-75
2023/05/31 03:55:25;;;;;;;3.77;2.10;;;14.30;59.90;;;;;;949818;148;27352;-75
2023/05/31 03:57:50;;;;;;;4.07;2.37;;;14.40;59.80;;;;;;968087;148;27361;-74
2023/05/31 04:00:17;;;;;;;4.63;2.27;;;14.40;59.30;;;;;;970011;147;27290;-75
2023/05/31 04:02:43;;;;;;;2.87;1.60;;;14.40;59.70;;;;;;969505;145;27321;-74
2023/05/31 04:05:10;;;;;;;4.73;2.33;;;14.50;59.70;;;;;;969172;147;27344;-75
2023/05/31 04:07:36;;;;;;;4.60;2.20;;;14.60;59.90;;;;;;969864;147;27341;-75
2023/05/31 04:10:03;;;;;;;4.50;2.63;;;14.60;59.70;;;;;;969876;145;27388;-75
2023/05/31 04:12:30;;;;;;;4.33;2.40;;;14.70;59.70;;;;;;969592;147;27430;-75
2023/05/31 04:14:56;;;;;;;2.60;1.97;;;14.70;59.80;;;;;;969968;147;27322;-75
2023/05/31 04:17:23;;;;;;;4.53;2.43;;;14.80;59.80;;;;;;970451;145;27426;-75
2023/05/31 04:19:50;;;;;;;5.43;2.30;;;14.90;59.80;;;;;;970297;147;27298;-75
2023/05/31 04:22:16;;;;;;;5.03;2.60;;;15.00;59.90;;;;;;969825;147;27330;-75
2023/05/31 04:24:43;;;;;;;3.07;2.33;;;15.00;59.80;;;;;;970219;147;27723;-75
2023/05/31 04:27:10;;;;;;;4.13;2.40;;;15.10;59.80;;;;;;969870;147;27337;-75
2023/05/31 04:29:36;;;;;;;4.90;2.43;;;15.10;59.80;;;;;;969209;147;27341;-75
2023/05/31 04:32:02;;;;;;;5.07;2.33;;;15.20;59.70;;;;;;969318;147;27313;-75
2023/05/31 04:34:30;;;;;;;2.90;2.40;;;15.30;59.70;;;;;;972291;145;27333;-75
2023/05/31 04:36:56;;;;;;;2.57;2.30;;;15.30;59.70;;;;;;959631;147;27340;-76
2023/05/31 04:39:22;;;;;;;3.53;2.50;;;15.40;59.80;;;;;;952450;148;27364;-76
2023/05/31 04:41:49;;;;;;;5.97;2.70;;;15.50;59.70;;;;;;961344;146;27399;-75
2023/05/31 04:44:15;;;;;;;4.30;2.30;;;15.60;59.70;;;;;;939637;147;27399;-76
2023/05/31 04:46:42;;;;;;;3.33;2.27;;;15.60;59.60;;;;;;943212;148;27271;-75
2023/05/31 04:49:09;;;;;;;2.63;2.00;;;15.70;59.60;;;;;;942510;148;27356;-75
2023/05/31 04:51:35;;;;;;;3.83;2.30;;;15.80;59.60;;;;;;942704;148;27289;-75
2023/05/31 04:54:02;;;;;;;5.30;2.07;;;16.00;59.60;;;;;;942288;148;27312;-76
2023/05/31 04:56:28;;;;;;;4.10;2.33;;;16.10;59.80;;;;;;942363;148;27401;-76
2023/05/31 04:58:55;;;;;;;4.08;2.02;;;16.30;60.00;;;;;;944115;148;27301;-75
2023/05/31 05:01:21;;;;;;;5.35;2.27;;;16.60;60.60;;;;;;942458;148;27331;-76
2023/05/31 05:03:51;;;;;;;3.58;2.17;;;17.00;61.20;;;;;;942659;148;27293;-75
2023/05/31 05:06:18;;;;;;;2.72;1.77;;;17.50;61.60;;;;;;927732;150;27289;-75
2023/05/31 05:08:41;;;;;;;3.25;1.75;;;18.10;61.60;;;;;;948735;147;27290;-76
2023/05/31 05:11:08;;;;;;;2.95;1.90;;;18.80;61.40;;;;;;951324;147;27412;-76
2023/05/31 05:13:34;;;;;;;4.65;2.30;;;19.50;60.90;;;;;;950784;147;27321;-76
2023/05/31 05:16:02;;;;;;;4.03;2.10;;;20.30;60.10;;;;;;950413;147;27285;-76
2023/05/31 05:18:27;;;;;;;7.97;2.25;;;21.10;59.20;;;;;;950682;147;27388;-76
2023/05/31 05:20:54;;;;;;;7.42;2.20;;;21.90;58.20;;;;;;952316;147;27326;-76
2023/05/31 05:23:21;;;;;;;3.60;1.98;;;22.60;57.10;;;;;;929141;149;27333;-76
2023/05/31 05:25:47;;;;;;;1.95;1.60;;;23.30;56.00;;;;;;929273;149;27319;-76
2023/05/31 05:28:14;;;;;;;2.83;1.90;;;23.90;55.10;;;;;;935373;149;27300;-76
2023/05/31 05:30:40;;;;;;;3.70;1.92;;;24.60;54.20;;;;;;934178;150;27330;-76
2023/05/31 05:33:07;;;;;;;2.42;1.82;;;25.20;53.40;;;;;;930154;149;27466;-76
2023/05/31 05:35:34;;;;;;;2.05;1.72;;;25.80;52.50;;;;;;929187;149;27358;-76
2023/05/31 05:38:00;;;;;;;3.08;1.82;;;26.30;51.70;;;;;;930710;149;27339;-76
2023/05/31 05:40:27;;;;;;;3.45;1.80;;;26.90;51.00;;;;;;927809;151;27342;-76
2023/05/31 05:42:53;;;;;;;4.15;1.67;;;27.40;50.30;;;;;;931098;149;27508;-76
2023/05/31 05:45:20;;;;;;;3.15;2.40;;;27.90;50.30;;;;;;945652;148;27468;-76
2023/05/31 05:47:48;;;;;;;3.02;2.08;;;28.40;48.90;;;;;;947431;149;27284;-76
2023/05/31 05:50:14;;;;;;;2.77;1.90;;;28.90;48.10;;;;;;944323;149;27371;-76
2023/05/31 05:52:40;;;;;;;4.75;2.20;;;29.20;47.20;;;;;;944829;148;27308;-76
2023/05/31 05:55:06;;;;;;;2.98;2.00;;;29.60;46.60;;;;;;966483;145;27354;-75
2023/05/31 05:57:33;;;;;;;3.08;1.85;;;30.00;46.00;;;;;;942282;149;27353;-76
2023/05/31 05:59:59;;;;;;;2.92;2.08;;;30.30;45.30;;;;;;963667;148;27370;-76
2023/05/31 06:02:26;;;;;;;2.95;1.95;;;30.60;44.80;;;;;;964205;148;27333;-76
2023/05/31 06:04:53;;;;;;;2.22;1.60;;;30.90;44.40;;;;;;964193;148;27328;-76
2023/05/31 06:07:21;;;;;;;3.55;2.05;;;31.20;43.90;;;;;;964959;147;27420;-76
2023/05/31 06:09:46;;;;;;;3.22;1.95;;;31.50;43.30;;;;;;963862;148;27351;-76
2023/05/31 06:12:12;;;;;;;2.40;1.80;;;31.80;42.60;;;;;;964484;147;27335;-76
2023/05/31 06:14:39;;;;;;;4.20;2.15;;;32.00;42.20;;;;;;965117;146;27397;-77
2023/05/31 06:17:06;;;;;;;2.83;1.87;;;32.20;41.60;;;;;;964845;147;27401;-76
2023/05/31 06:19:33;;;;;;;3.15;1.60;;;32.40;41.40;;;;;;964893;148;27332;-76
2023/05/31 06:21:59;;;;;;;3.40;1.85;;;32.60;41.20;;;;;;964264;148;26263;-76
2023/05/31 06:24:25;;;;;;;2.45;1.62;;;32.90;41.20;;;;;;964434;146;27322;-76
2023/05/31 06:26:52;;;;;;;9.35;2.00;;;33.20;40.80;;;;;;964933;147;26242;-77
2023/05/31 06:29:19;;;;;;;2.20;2.00;;;33.50;40.50;;;;;;964714;145;26369;-77
2023/05/31 06:31:45;;;;;;;2.30;1.72;;;33.90;39.70;;;;;;963192;147;27428;-77
2023/05/31 06:34:12;;;;;;;2.10;1.50;;;34.20;39.30;;;;;;965399;147;26312;-77
2023/05/31 06:36:38;;;;;;;2.62;1.35;;;34.50;38.80;;;;;;963464;147;26289;-77
2023/05/31 06:39:05;;;;;;;2.33;1.80;;;34.80;38.50;;;;;;965271;145;26249;-77
2023/05/31 06:41:34;;;;;;;3.37;1.52;;;35.10;38.20;;;;;;963969;148;26336;-77
2023/05/31 06:43:58;;;;;;;2.42;1.75;;;35.40;37.90;;;;;;964709;147;26219;-77
2023/05/31 06:46:25;;;;;;;1.55;1.45;;;35.70;37.40;;;;;;959535;147;26353;-77
2023/05/31 06:48:51;;;;;;;2.17;1.77;;;36.10;37.20;;;;;;932588;149;26259;-77
2023/05/31 06:51:19;;;;;;;1.57;1.47;;;36.40;36.40;;;;;;927286;150;26264;-77
2023/05/31 06:53:44;;;;;;;2.47;1.75;;;36.70;36.00;;;;;;942452;148;26322;-77
2023/05/31 06:56:11;;;;;;;1.67;1.57;;;37.00;35.60;;;;;;942041;148;26214;-77
2023/05/31 06:58:38;;;;;;;4.17;1.90;;;37.20;35.20;;;;;;941371;149;26248;-77
2023/05/31 07:01:04;;;;;;;2.67;1.80;;;37.50;34.90;;;;;;942486;149;26280;-77
2023/05/31 07:03:31;;;;;;;4.15;1.75;;;37.80;34.80;;;;;;950743;146;26192;-77
2023/05/31 07:05:57;;;;;;;4.33;1.75;;;38.10;34.60;;;;;;951489;147;26304;-77
2023/05/31 07:08:24;;;;;;;2.37;1.50;;;38.40;33.80;;;;;;951079;147;26201;-77
2023/05/31 07:10:51;;;;;;;3.90;1.87;;;38.70;33.40;;;;;;951224;147;26297;-77
2023/05/31 07:13:17;;;;;;;2.72;1.67;;;38.90;32.70;;;;;;948349;147;26346;-77
2023/05/31 07:15:44;;;;;;;2.25;1.47;;;39.20;32.10;;;;;;948230;147;26228;-77
2023/05/31 07:18:10;;;;;;;2.90;1.67;;;39.30;31.70;;;;;;942423;149;26335;-77
2023/05/31 07:20:37;;;;;;;2.95;1.40;;;39.50;31.50;;;;;;943445;148;26332;-77
2023/05/31 07:23:04;;;;;;;3.40;1.82;;;39.70;31.20;;;;;;948875;146;26276;-77
2023/05/31 07:25:30;;;;;;;1.62;1.42;;;39.90;30.70;;;;;;949436;147;26161;-77
2023/05/31 07:27:57;;;;;;;3.52;1.55;;;40.10;30.40;;;;;;933325;149;26242;-77
2023/05/31 07:30:23;;;;;;;6.95;1.70;;;40.20;30.20;;;;;;928080;150;26214;-77
2023/05/31 07:32:50;;;;;;;2.87;1.90;;;40.40;29.90;;;;;;950009;147;26334;-77
2023/05/31 07:35:16;;;;;;;2.90;1.57;;;40.60;29.70;;;;;;931038;149;27471;-77
2023/05/31 07:37:43;;;;;;;1.85;1.50;;;40.80;29.40;;;;;;934670;149;26223;-77
2023/05/31 07:40:10;;;;;;;2.35;1.50;;;41.00;29.60;;;;;;949606;146;26280;-77
2023/05/31 07:42:37;;;;;;;2.30;1.50;;;41.30;29.40;;;;;;950235;147;26254;-77
2023/05/31 07:45:03;;;;;;;1.70;1.40;;;41.60;29.10;;;;;;949800;147;26554;-77
2023/05/31 07:47:29;;;;;;;2.42;1.70;;;41.80;28.90;;;;;;949998;147;26194;-75
2023/05/31 07:49:56;;;;;;;4.08;1.70;;;42.20;28.60;;;;;;950103;147;26337;-76
2023/05/31 07:52:23;;;;;;;2.02;1.32;;;42.60;28.50;;;;;;950819;147;26245;-75
2023/05/31 07:54:49;;;;;;;1.42;1.32;;;43.10;28.30;;;;;;950542;147;26256;-76
2023/05/31 07:57:16;;;;;;;1.60;1.47;;;43.40;27.90;;;;;;951908;147;26185;-76
2023/05/31 07:59:42;;;;;;;1.50;1.20;;;43.80;27.20;;;;;;951155;147;26174;-75
2023/05/31 08:02:09;;;;;;;2.08;1.20;;;44.10;26.30;;;;;;951228;147;26190;-75
2023/05/31 08:04:36;;;;;;;1.67;1.30;;;44.30;26.00;;;;;;951054;147;26341;-76
2023/05/31 08:07:02;;;;;;;1.70;1.60;;;44.30;25.70;;;;;;943027;149;26273;-76
2023/05/31 08:09:29;;;;;;;2.17;1.20;;;44.30;25.00;;;;;;949522;146;26372;-75
2023/05/31 08:11:55;;;;;;;1.75;1.57;;;44.20;24.80;;;;;;949638;146;26171;-75
2023/05/31 08:14:22;;;;;;;2.30;1.30;;;43.90;24.20;;;;;;949736;146;26239;-75
2023/05/31 08:16:49;;;;;;;3.22;1.20;;;43.60;24.10;;;;;;947866;147;26229;-75
2023/05/31 08:19:15;;;;;;;2.52;1.60;;;43.20;23.60;;;;;;943026;149;26174;-75
2023/05/31 08:21:42;;;;;;;1.80;1.40;;;42.90;24.50;;;;;;942349;149;26628;-75
2023/05/31 08:24:08;;;;;;;2.72;1.52;;;42.60;24.40;;;;;;943169;149;26252;-75
2023/05/31 08:26:35;;;;;;;1.47;1.27;;;42.50;24.40;;;;;;943062;149;26281;-76
2023/05/31 08:29:01;;;;;;;3.15;1.70;;;42.30;24.10;;;;;;927750;150;26206;-75
2023/05/31 08:31:28;;;;;;;1.65;1.25;;;42.20;24.10;;;;;;943582;148;26226;-75
2023/05/31 08:33:55;;;;;;;3.40;1.30;;;42.00;24.00;;;;;;946483;149;26260;-76
2023/05/31 08:36:21;;;;;;;3.35;1.40;;;41.70;23.90;;;;;;947019;149;26221;-75
2023/05/31 08:38:48;;;;;;;1.30;1.20;;;41.50;24.00;;;;;;946325;149;26291;-75
2023/05/31 08:41:14;;;;;;;2.80;1.55;;;41.40;23.90;;;;;;945999;149;26586;-75
2023/05/31 08:43:41;;;;;;;1.72;1.20;;;41.30;23.90;;;;;;946588;149;26659;-75
2023/05/31 08:46:08;;;;;;;1.62;1.20;;;41.20;24.10;;;;;;945935;149;26358;-75
2023/05/31 08:48:40;;;;;;;1.65;1.45;;;41.20;23.70;;;;;;946764;149;26297;-76
2023/05/31 08:51:06;;;;;;;2.05;1.47;;;41.10;23.70;;;;;;946126;149;26259;-75
2023/05/31 08:53:33;;;;;;;1.42;1.22;;;40.90;23.60;;;;;;945614;149;26321;-76
2023/05/31 08:56:01;;;;;;;1.87;1.40;;;40.70;23.60;;;;;;945260;149;26277;-75
2023/05/31 08:58:28;;;;;;;3.52;1.50;;;40.50;23.40;;;;;;945393;149;26390;-75
2023/05/31 09:00:53;;;;;;;2.10;1.42;;;40.40;23.50;;;;;;945747;149;26201;-76
2023/05/31 09:03:19;;;;;;;1.75;1.52;;;40.30;23.60;;;;;;946074;149;26283;-76
2023/05/31 09:05:46;;;;;;;3.33;1.57;;;40.20;23.60;;;;;;946714;149;26186;-76
2023/05/31 09:08:13;;;;;;;1.35;1.30;;;40.10;23.80;;;;;;946029;149;26292;-75
2023/05/31 09:10:39;;;;;;;1.47;1.37;;;40.00;23.90;;;;;;945478;149;26312;-75
2023/05/31 09:13:06;;;;;;;1.37;1.25;;;40.00;23.90;;;;;;944789;149;26318;-76
2023/05/31 09:15:32;;;;;;;1.70;1.22;;;40.20;23.80;;;;;;946191;149;26254;-76
2023/05/31 09:17:59;;;;;;;1.85;1.25;;;40.20;23.60;;;;;;944204;148;26285;-76
2023/05/31 09:20:34;;;;;;;1.77;1.30;;;40.20;23.50;;;;;;943145;148;26263;-76
2023/05/31 09:22:58;;;;;;;1.77;1.10;;;40.30;23.60;;;;;;943749;149;26350;-76
2023/05/31 09:25:24;;;;;;;3.83;2.87;;;40.30;23.50;;;;;;944496;148;26238;-78
2023/05/31 09:27:51;;;;;;;1.80;1.70;;;40.30;23.20;;;;;;946490;149;26217;-78
2023/05/31 09:30:18;;;;;;;2.75;1.32;;;40.30;23.30;;;;;;946976;149;26370;-79
2023/05/31 09:32:44;;;;;;;2.33;1.30;;;40.30;23.30;;;;;;945801;149;26233;-78
2023/05/31 09:35:17;;;;;;;2.02;1.42;;;40.30;22.90;;;;;;945489;148;26217;-79
2023/05/31 09:37:44;;;;;;;1.77;1.27;;;40.20;23.10;;;;;;946553;149;26193;-78
2023/05/31 09:40:10;;;;;;;1.77;1.00;;;40.20;23.20;;;;;;945160;149;26309;-79
2023/05/31 09:42:37;;;;;;;2.87;1.57;;;40.20;22.80;;;;;;945840;149;26299;-79
2023/05/31 09:45:04;;;;;;;2.83;1.80;;;40.20;22.80;;;;;;946723;149;26205;-79
2023/05/31 09:47:30;;;;;;;1.40;1.30;;;40.20;22.60;;;;;;949143;146;26225;-79
2023/05/31 09:49:56;;;;;;;3.42;1.35;;;39.90;22.40;;;;;;944860;149;26268;-79
2023/05/31 09:52:23;;;;;;;9.43;1.52;;;39.60;22.40;;;;;;945533;149;27510;-79
2023/05/31 09:54:50;;;;;;;2.95;1.75;;;39.30;22.30;;;;;;943783;149;26182;-79
2023/05/31 09:57:29;;;;;;;1.77;1.20;;;38.90;22.40;;;;;;944414;149;26240;-79
2023/05/31 09:59:58;;;;;;;1.35;1.00;;;38.50;22.50;;;;;;944529;149;26280;-78
2023/05/31 10:02:24;;;;;;;1.47;1.25;;;37.90;22.70;;;;;;944926;149;26252;-79
2023/05/31 10:04:51;;;;;;;1.42;1.20;;;37.40;22.70;;;;;;944244;149;27779;-79
2023/05/31 10:07:18;;;;;;;2.10;1.30;;;36.90;22.70;;;;;;944780;149;26283;-79
2023/05/31 10:09:44;;;;;;;1.77;1.32;;;36.50;22.70;;;;;;943988;149;27367;-79
2023/05/31 10:12:11;;;;;;;2.30;1.57;;;36.10;23.30;;;;;;944594;149;26357;-78
2023/05/31 10:14:38;;;;;;;2.12;1.50;;;35.60;23.40;;;;;;944207;149;27357;-78
2023/05/31 10:17:04;;;;;;;2.65;1.50;;;35.10;22.90;;;;;;943493;149;27318;-78
2023/05/31 10:19:42;;;;;;;1.82;1.35;;;34.70;23.10;;;;;;943449;149;27353;-78
2023/05/31 10:22:09;;;;;;;2.15;1.32;;;34.10;23.20;;;;;;944149;149;27368;-79
2023/05/31 10:24:36;;;;;;;5.35;1.87;;;33.60;23.60;;;;;;943570;149;27451;-79
2023/05/31 10:27:23;;;;;;;2.12;1.50;;;33.10;23.60;;;;;;942547;149;27294;-78
2023/05/31 10:29:50;;;;;;;4.03;1.80;;;32.70;23.90;;;;;;968303;145;27396;-78
2023/05/31 10:32:16;;;;;;;3.47;1.82;;;32.30;24.00;;;;;;967285;145;27421;-78
2023/05/31 10:34:43;;;;;;;3.42;2.25;;;31.90;24.10;;;;;;944831;148;27352;-78
2023/05/31 10:37:10;;;;;;;2.08;1.65;;;31.50;24.50;;;;;;967090;145;27349;-78
2023/05/31 10:39:55;;;;;;;1.50;1.40;;;31.10;25.10;;;;;;945550;149;27442;-78
2023/05/31 10:42:36;;;;;;;3.40;1.50;;;30.80;24.80;;;;;;929333;151;27370;-78
2023/05/31 10:45:09;;;;;;;3.60;1.60;;;30.40;25.00;;;;;;968229;145;27424;-78
2023/05/31 10:47:38;;;;;;;3.87;1.30;;;30.10;25.20;;;;;;967814;145;27737;-78
2023/05/31 10:50:05;;;;;;;2.02;1.65;;;29.90;25.50;;;;;;967127;145;27295;-78
2023/05/31 10:52:31;;;;;;;1.32;1.22;;;29.60;25.70;;;;;;967614;145;27402;-78
2023/05/31 10:55:17;;;;;;;3.15;1.50;;;29.40;25.90;;;;;;967328;145;27294;-78
2023/05/31 10:57:43;;;;;;;5.67;2.35;;;29.30;26.10;;;;;;958560;145;27417;-78
2023/05/31 11:00:11;;;;;;;3.05;2.15;;;29.10;26.30;;;;;;968472;145;27377;-78
2023/05/31 11:02:36;;;;;;;3.77;1.70;;;29.00;26.50;;;;;;968292;145;27709;-78
2023/05/31 11:05:18;;;;;;;2.75;1.70;;;28.90;26.40;;;;;;968296;145;27372;-78
2023/05/31 11:07:44;;;;;;;1.85;1.37;;;28.80;26.40;;;;;;968411;145;27347;-78
2023/05/31 11:10:13;;;;;;;2.65;1.15;;;28.70;26.50;;;;;;967275;145;27464;-78
2023/05/31 11:12:40;;;;;;;2.77;1.65;;;28.60;26.40;;;;;;964196;145;27329;-78
2023/05/31 11:15:04;;;;;;;1.62;1.52;;;28.60;26.50;;;;;;968561;145;27300;-78
2023/05/31 11:17:31;;;;;;;2.00;1.62;;;28.50;26.40;;;;;;968192;145;27276;-78
2023/05/31 11:19:58;;;;;;;1.77;1.57;;;28.50;26.50;;;;;;966297;145;27351;-78
2023/05/31 11:22:24;;;;;;;1.72;1.30;;;28.40;26.70;;;;;;966469;145;27400;-78
2023/05/31 11:24:50;;;;;;;1.75;1.30;;;28.40;26.70;;;;;;967837;145;27409;-78
2023/05/31 11:27:19;;;;;;;2.47;1.42;;;28.30;26.70;;;;;;966556;145;27892;-78
2023/05/31 11:29:49;;;;;;;2.40;1.75;;;28.20;26.90;;;;;;967481;145;27333;-78
2023/05/31 11:32:15;;;;;;;1.60;1.32;;;28.20;27.00;;;;;;965413;145;27391;-78
2023/05/31 11:34:57;;;;;;;1.57;1.10;;;28.20;27.00;;;;;;967255;145;27276;-78
2023/05/31 11:37:23;;;;;;;1.65;1.30;;;28.20;27.20;;;;;;967014;145;27404;-78
2023/05/31 11:39:50;;;;;;;3.40;1.32;;;28.20;27.20;;;;;;966043;145;27320;-78
2023/05/31 11:42:16;;;;;;;3.87;1.27;;;28.20;27.20;;;;;;967443;145;27264;-78
2023/05/31 11:44:43;;;;;;;1.82;1.20;;;28.20;27.30;;;;;;967078;145;27285;-78
2023/05/31 11:47:22;;;;;;;1.47;1.30;;;28.30;27.40;;;;;;968555;145;27397;-78
2023/05/31 11:49:48;;;;;;;1.30;1.20;;;28.30;27.50;;;;;;950256;147;27370;-78
2023/05/31 11:52:18;;;;;;;1.40;1.30;;;28.30;27.40;;;;;;947264;147;27387;-78
2023/05/31 11:54:45;;;;;;;1.77;1.25;;;28.30;27.30;;;;;;940189;149;27440;-78
2023/05/31 11:57:11;;;;;;;1.40;1.30;;;28.30;27.30;;;;;;941618;149;27311;-78
2023/05/31 11:59:38;;;;;;;1.60;1.32;;;28.30;27.30;;;;;;942754;148;27839;-78
2023/05/31 12:02:04;;;;;;;1.22;1.12;;;28.40;27.30;;;;;;942145;149;27355;-78
2023/05/31 12:04:40;;;;;;;1.60;1.15;;;28.30;27.20;;;;;;942171;148;27272;-78
2023/05/31 12:07:06;;;;;;;1.00;1.00;;;28.30;27.20;;;;;;935618;147;27322;-78
2023/05/31 12:09:32;;;;;;;1.15;1.10;;;28.30;27.00;;;;;;946027;147;27380;-78
2023/05/31 12:11:59;;;;;;;1.15;1.05;;;28.30;27.00;;;;;;941981;149;28742;-78
2023/05/31 12:14:28;;;;;;;1.47;1.37;;;28.30;27.00;;;;;;942845;149;27826;-78
2023/05/31 12:16:55;;;;;;;1.22;1.10;;;28.30;27.10;;;;;;943441;149;27395;-78
2023/05/31 12:19:21;;;;;;;1.90;1.27;;;28.30;27.20;;;;;;943610;149;27446;-78
2023/05/31 12:21:48;;;;;;;2.17;1.10;;;28.30;27.30;;;;;;943386;149;27366;-78
2023/05/31 12:24:15;;;;;;;1.45;1.05;;;28.30;27.30;;;;;;942996;149;27338;-78
2023/05/31 12:26:44;;;;;;;1.22;1.00;;;28.30;27.40;;;;;;942915;149;27396;-78
2023/05/31 12:29:11;;;;;;;1.95;1.30;;;28.30;27.40;;;;;;942842;149;27375;-78
2023/05/31 12:31:37;;;;;;;1.87;1.30;;;28.30;27.40;;;;;;934488;149;27328;-78
2023/05/31 12:34:07;;;;;;;1.20;1.10;;;28.30;28.00;;;;;;927647;151;27320;-78
2023/05/31 12:36:41;;;;;;;1.52;1.30;;;28.30;27.80;;;;;;951025;147;27347;-78
2023/05/31 12:39:20;;;;;;;3.75;1.62;;;28.30;27.90;;;;;;950512;147;27337;-78
2023/05/31 12:41:47;;;;;;;2.58;1.00;;;28.40;28.00;;;;;;949871;147;27300;-78
2023/05/31 12:44:16;;;;;;;2.33;1.22;;;28.40;28.20;;;;;;950909;147;27308;-78
2023/05/31 12:46:40;;;;;;;3.52;1.35;;;28.40;28.10;;;;;;949567;147;27340;-78
2023/05/31 12:49:20;;;;;;;4.92;1.20;;;28.50;28.10;;;;;;927362;149;27506;-78